TimeMDT,TemperatureF,Dew PointF,Humidity,Sea Level PressureIn,VisibilityMPH,Wind Direction,Wind SpeedMPH,Gust SpeedMPH,PrecipitationIn,Events,Conditions,WindDirDegrees,DateUTC
12:56 AM,57.9,39.0,49,29.92,-9999.0,ESE,9.2,-,N/A,,Unknown,120,2013-07-28 06:56:00
1:56 AM,57.9,39.9,51,29.89,-9999.0,SE,15.0,-,N/A,,Unknown,130,2013-07-28 07:56:00
2:56 AM,55.9,41.0,57,29.87,-9999.0,ESE,9.2,-,N/A,,Unknown,110,2013-07-28 08:56:00
3:56 AM,55.0,41.0,59,29.87,-9999.0,ESE,10.4,17.3,N/A,,Unknown,110,2013-07-28 09:56:00
4:56 AM,53.1,42.1,66,29.86,-9999.0,East,9.2,-,N/A,,Unknown,100,2013-07-28 10:56:00
5:56 AM,53.1,43.0,69,29.87,-9999.0,East,9.2,-,N/A,,Unknown,100,2013-07-28 11:56:00
6:56 AM,55.9,44.1,64,29.86,-9999.0,ESE,9.2,-,N/A,,Unknown,110,2013-07-28 12:56:00
7:56 AM,59.0,46.0,62,29.87,-9999.0,SE,18.4,23.0,N/A,,Unknown,140,2013-07-28 13:56:00
8:56 AM,66.9,48.9,52,29.86,-9999.0,SE,17.3,23.0,N/A,,Unknown,140,2013-07-28 14:56:00
9:56 AM,69.1,51.1,53,29.86,-9999.0,SE,18.4,24.2,N/A,,Unknown,140,2013-07-28 15:56:00
10:56 AM,73.0,52.0,48,29.85,-9999.0,SE,17.3,25.3,N/A,,Unknown,130,2013-07-28 16:56:00
11:56 AM,73.9,52.0,46,29.84,-9999.0,SE,21.9,26.5,N/A,,Unknown,140,2013-07-28 17:56:00
12:56 PM,78.1,52.0,40,29.83,-9999.0,SE,19.6,26.5,N/A,,Unknown,130,2013-07-28 18:56:00
1:56 PM,81.0,52.0,36,29.81,-9999.0,SE,19.6,34.5,N/A,,Unknown,140,2013-07-28 19:56:00
2:56 PM,82.9,52.0,34,29.79,-9999.0,SE,17.3,31.1,N/A,,Unknown,130,2013-07-28 20:56:00
3:56 PM,82.0,51.1,34,29.77,-9999.0,SE,19.6,27.6,N/A,,Unknown,140,2013-07-28 21:56:00
4:56 PM,81.0,51.1,35,29.76,-9999.0,ESE,19.6,29.9,N/A,,Unknown,120,2013-07-28 22:56:00
5:56 PM,79.0,52.0,39,29.77,-9999.0,SE,19.6,-,N/A,,Unknown,140,2013-07-28 23:56:00
6:56 PM,78.1,53.1,42,29.79,-9999.0,SE,19.6,25.3,N/A,,Unknown,140,2013-07-29 00:56:00
7:56 PM,75.0,55.0,50,29.81,-9999.0,SSE,17.3,-,N/A,,Unknown,150,2013-07-29 01:56:00
8:56 PM,73.0,54.0,51,29.81,-9999.0,SE,16.1,-,N/A,,Unknown,140,2013-07-29 02:56:00
9:56 PM,71.1,54.0,55,29.83,-9999.0,SE,10.4,-,N/A,,Unknown,140,2013-07-29 03:56:00
10:43 PM,64.9,53.1,65,29.92,-9999.0,NW,12.7,-,N/A,,Unknown,320,2013-07-29 04:43:00
10:56 PM,64.9,54.0,68,29.86,-9999.0,North,4.6,-,N/A,,Unknown,350,2013-07-29 04:56:00
11:56 PM,66.0,53.1,63,29.82,-9999.0,SSE,10.4,-,N/A,,Unknown,150,2013-07-29 05:56:00